sensor_id;sensor_type;location;lat;lon;timestamp;P1;durP1;ratioP1;P2;durP2;ratioP2
55364;SDS011;41245;45.384;20.390;2022-12-10T00:03:44;21.05;;;9.77;;
55364;SDS011;41245;45.384;20.390;2022-12-10T00:06:11;27.88;;;11.77;;
55364;SDS011;41245;45.384;20.390;2022-12-10T00:08:39;26.60;;;11.82;;
55364;SDS011;41245;45.384;20.390;2022-12-10T00:11:06;21.75;;;11.43;;
55364;SDS011;41245;45.384;20.390;2022-12-10T00:13:34;21.77;;;10.30;;
55364;SDS011;41245;45.384;20.390;2022-12-10T00:16:01;26.38;;;10.63;;
55364;SDS011;41245;45.384;20.390;2022-12-10T00:18:28;32.60;;;10.25;;
55364;SDS011;41245;45.384;20.390;2022-12-10T00:20:54;31.00;;;10.20;;
55364;SDS011;41245;45.384;20.390;2022-12-10T00:23:20;19.30;;;9.68;;
55364;SDS011;41245;45.384;20.390;2022-12-10T00:25:46;25.65;;;10.45;;
55364;SDS011;41245;45.384;20.390;2022-12-10T00:28:12;23.08;;;9.25;;
55364;SDS011;41245;45.384;20.390;2022-12-10T00:30:38;26.48;;;10.57;;
55364;SDS011;41245;45.384;20.390;2022-12-10T00:33:04;21.98;;;10.27;;
55364;SDS011;41245;45.384;20.390;2022-12-10T00:35:30;31.08;;;10.48;;
55364;SDS011;41245;45.384;20.390;2022-12-10T00:37:56;29.88;;;10.00;;
55364;SDS011;41245;45.384;20.390;2022-12-10T00:40:22;26.75;;;11.57;;
55364;SDS011;41245;45.384;20.390;2022-12-10T00:42:48;21.05;;;10.90;;
55364;SDS011;41245;45.384;20.390;2022-12-10T00:45:13;25.40;;;10.95;;
55364;SDS011;41245;45.384;20.390;2022-12-10T00:47:39;18.83;;;9.65;;
55364;SDS011;41245;45.384;20.390;2022-12-10T00:50:05;28.15;;;11.48;;
55364;SDS011;41245;45.384;20.390;2022-12-10T00:52:31;23.75;;;9.55;;
55364;SDS011;41245;45.384;20.390;2022-12-10T00:54:56;21.80;;;8.82;;
55364;SDS011;41245;45.384;20.390;2022-12-10T00:57:22;11.23;;;8.65;;
55364;SDS011;41245;45.384;20.390;2022-12-10T00:59:48;23.92;;;10.65;;
55364;SDS011;41245;45.384;20.390;2022-12-10T01:02:13;19.75;;;9.80;;
55364;SDS011;41245;45.384;20.390;2022-12-10T01:04:39;29.17;;;12.52;;
55364;SDS011;41245;45.384;20.390;2022-12-10T01:07:05;20.13;;;10.20;;
55364;SDS011;41245;45.384;20.390;2022-12-10T01:09:31;27.45;;;11.52;;
55364;SDS011;41245;45.384;20.390;2022-12-10T01:11:57;25.48;;;10.73;;
55364;SDS011;41245;45.384;20.390;2022-12-10T01:14:29;26.10;;;10.85;;
55364;SDS011;41245;45.384;20.390;2022-12-10T01:16:57;19.33;;;10.47;;
55364;SDS011;41245;45.384;20.390;2022-12-10T01:19:24;31.92;;;13.15;;
55364;SDS011;41245;45.384;20.390;2022-12-10T01:21:51;24.90;;;10.95;;
55364;SDS011;41245;45.384;20.390;2022-12-10T01:24:18;23.10;;;10.63;;
55364;SDS011;41245;45.384;20.390;2022-12-10T01:26:45;27.75;;;10.35;;
55364;SDS011;41245;45.384;20.390;2022-12-10T01:29:11;23.58;;;10.60;;
55364;SDS011;41245;45.384;20.390;2022-12-10T01:31:37;22.30;;;10.32;;
55364;SDS011;41245;45.384;20.390;2022-12-10T01:34:04;24.58;;;9.35;;
55364;SDS011;41245;45.384;20.390;2022-12-10T01:36:35;21.67;;;9.60;;
55364;SDS011;41245;45.384;20.390;2022-12-10T01:39:03;19.70;;;8.85;;
55364;SDS011;41245;45.384;20.390;2022-12-10T01:41:32;16.88;;;8.63;;
55364;SDS011;41245;45.384;20.390;2022-12-10T01:46:38;22.35;;;9.88;;
55364;SDS011;41245;45.384;20.390;2022-12-10T01:49:06;19.77;;;9.82;;
55364;SDS011;41245;45.384;20.390;2022-12-10T01:51:38;22.50;;;10.65;;
55364;SDS011;41245;45.384;20.390;2022-12-10T01:54:08;16.00;;;9.30;;
55364;SDS011;41245;45.384;20.390;2022-12-10T01:56:38;23.13;;;10.23;;
55364;SDS011;41245;45.384;20.390;2022-12-10T01:59:07;26.35;;;9.75;;
55364;SDS011;41245;45.384;20.390;2022-12-10T02:01:39;17.45;;;9.75;;
55364;SDS011;41245;45.384;20.390;2022-12-10T02:04:16;19.85;;;9.23;;
55364;SDS011;41245;45.384;20.390;2022-12-10T02:07:00;19.55;;;9.05;;
55364;SDS011;41245;45.384;20.390;2022-12-10T02:12:24;25.05;;;8.63;;
55364;SDS011;41245;45.384;20.390;2022-12-10T02:17:29;16.88;;;9.27;;
55364;SDS011;41245;45.384;20.390;2022-12-10T02:20:05;19.52;;;9.70;;
55364;SDS011;41245;45.384;20.390;2022-12-10T02:22:37;17.02;;;9.02;;
55364;SDS011;41245;45.384;20.390;2022-12-10T02:26:11;20.33;;;8.93;;
55364;SDS011;41245;45.384;20.390;2022-12-10T02:28:25;16.98;;;8.70;;
55364;SDS011;41245;45.384;20.390;2022-12-10T02:30:58;16.42;;;9.15;;
55364;SDS011;41245;45.384;20.390;2022-12-10T02:33:26;17.40;;;8.75;;
55364;SDS011;41245;45.384;20.390;2022-12-10T02:35:54;15.93;;;7.50;;
55364;SDS011;41245;45.384;20.390;2022-12-10T02:41:00;16.60;;;7.80;;
55364;SDS011;41245;45.384;20.390;2022-12-10T02:43:29;17.30;;;8.38;;
55364;SDS011;41245;45.384;20.390;2022-12-10T02:45:59;17.50;;;7.80;;
55364;SDS011;41245;45.384;20.390;2022-12-10T02:48:27;13.30;;;8.02;;
55364;SDS011;41245;45.384;20.390;2022-12-10T02:50:54;20.58;;;8.80;;
55364;SDS011;41245;45.384;20.390;2022-12-10T02:53:20;18.60;;;9.00;;
55364;SDS011;41245;45.384;20.390;2022-12-10T03:03:48;27.90;;;12.18;;
55364;SDS011;41245;45.384;20.390;2022-12-10T03:06:32;26.35;;;11.65;;
55364;SDS011;41245;45.384;20.390;2022-12-10T03:09:12;30.88;;;13.30;;
55364;SDS011;41245;45.384;20.390;2022-12-10T03:11:43;33.88;;;15.43;;
55364;SDS011;41245;45.384;20.390;2022-12-10T03:14:16;37.20;;;17.52;;
55364;SDS011;41245;45.384;20.390;2022-12-10T03:16:47;28.83;;;14.05;;
55364;SDS011;41245;45.384;20.390;2022-12-10T03:19:19;35.17;;;14.30;;
55364;SDS011;41245;45.384;20.390;2022-12-10T03:21:49;33.00;;;15.52;;
55364;SDS011;41245;45.384;20.390;2022-12-10T03:24:16;34.88;;;14.32;;
55364;SDS011;41245;45.384;20.390;2022-12-10T03:26:43;28.67;;;14.63;;
55364;SDS011;41245;45.384;20.390;2022-12-10T03:29:14;36.85;;;14.95;;
55364;SDS011;41245;45.384;20.390;2022-12-10T03:31:45;38.90;;;15.07;;
55364;SDS011;41245;45.384;20.390;2022-12-10T03:34:12;25.90;;;13.40;;
55364;SDS011;41245;45.384;20.390;2022-12-10T03:36:39;26.80;;;12.43;;
55364;SDS011;41245;45.384;20.390;2022-12-10T03:39:07;32.40;;;12.00;;
55364;SDS011;41245;45.384;20.390;2022-12-10T03:41:33;24.73;;;11.45;;
55364;SDS011;41245;45.384;20.390;2022-12-10T03:43:59;25.05;;;11.68;;
55364;SDS011;41245;45.384;20.390;2022-12-10T03:46:26;30.95;;;11.82;;
55364;SDS011;41245;45.384;20.390;2022-12-10T03:48:54;27.75;;;11.35;;
55364;SDS011;41245;45.384;20.390;2022-12-10T03:51:21;24.50;;;12.88;;
55364;SDS011;41245;45.384;20.390;2022-12-10T03:53:47;19.88;;;10.77;;
55364;SDS011;41245;45.384;20.390;2022-12-10T03:56:14;24.50;;;10.60;;
55364;SDS011;41245;45.384;20.390;2022-12-10T03:58:40;23.00;;;10.77;;
55364;SDS011;41245;45.384;20.390;2022-12-10T04:01:06;26.55;;;10.38;;
55364;SDS011;41245;45.384;20.390;2022-12-10T04:03:36;25.52;;;11.77;;
55364;SDS011;41245;45.384;20.390;2022-12-10T04:06:06;22.67;;;10.27;;
55364;SDS011;41245;45.384;20.390;2022-12-10T04:08:34;27.70;;;10.48;;
55364;SDS011;41245;45.384;20.390;2022-12-10T04:11:04;18.92;;;9.77;;
55364;SDS011;41245;45.384;20.390;2022-12-10T04:13:31;24.88;;;9.30;;
55364;SDS011;41245;45.384;20.390;2022-12-10T04:16:19;28.13;;;10.23;;
55364;SDS011;41245;45.384;20.390;2022-12-10T04:18:51;19.83;;;9.85;;
55364;SDS011;41245;45.384;20.390;2022-12-10T04:21:22;20.92;;;10.63;;
55364;SDS011;41245;45.384;20.390;2022-12-10T04:24:07;23.85;;;9.55;;
55364;SDS011;41245;45.384;20.390;2022-12-10T04:26:54;18.70;;;9.65;;
55364;SDS011;41245;45.384;20.390;2022-12-10T04:29:28;20.05;;;10.15;;
55364;SDS011;41245;45.384;20.390;2022-12-10T04:31:55;25.33;;;9.32;;
55364;SDS011;41245;45.384;20.390;2022-12-10T04:34:22;24.80;;;9.35;;
55364;SDS011;41245;45.384;20.390;2022-12-10T04:36:48;22.67;;;9.70;;
55364;SDS011;41245;45.384;20.390;2022-12-10T04:39:14;19.60;;;8.80;;
55364;SDS011;41245;45.384;20.390;2022-12-10T04:41:41;20.73;;;8.77;;
55364;SDS011;41245;45.384;20.390;2022-12-10T04:44:08;17.45;;;8.27;;
55364;SDS011;41245;45.384;20.390;2022-12-10T04:46:34;16.67;;;6.85;;
55364;SDS011;41245;45.384;20.390;2022-12-10T04:49:00;16.20;;;7.15;;
55364;SDS011;41245;45.384;20.390;2022-12-10T04:51:26;16.15;;;7.25;;
55364;SDS011;41245;45.384;20.390;2022-12-10T04:53:52;19.75;;;6.97;;
55364;SDS011;41245;45.384;20.390;2022-12-10T04:56:18;23.52;;;7.88;;
55364;SDS011;41245;45.384;20.390;2022-12-10T04:58:44;22.08;;;7.57;;
55364;SDS011;41245;45.384;20.390;2022-12-10T05:01:10;20.40;;;6.97;;
55364;SDS011;41245;45.384;20.390;2022-12-10T05:03:37;19.80;;;6.70;;
55364;SDS011;41245;45.384;20.390;2022-12-10T05:06:05;16.05;;;8.45;;
55364;SDS011;41245;45.384;20.390;2022-12-10T05:08:35;28.25;;;9.07;;
55364;SDS011;41245;45.384;20.390;2022-12-10T05:11:03;30.73;;;11.73;;
55364;SDS011;41245;45.384;20.390;2022-12-10T05:13:30;17.55;;;7.95;;
55364;SDS011;41245;45.384;20.390;2022-12-10T05:15:56;21.70;;;7.22;;
55364;SDS011;41245;45.384;20.390;2022-12-10T05:18:22;21.05;;;9.77;;
55364;SDS011;41245;45.384;20.390;2022-12-10T05:20:48;20.13;;;7.78;;
55364;SDS011;41245;45.384;20.390;2022-12-10T05:23:14;15.20;;;7.60;;
55364;SDS011;41245;45.384;20.390;2022-12-10T05:26:08;14.98;;;7.78;;
55364;SDS011;41245;45.384;20.390;2022-12-10T05:28:38;16.38;;;7.05;;
55364;SDS011;41245;45.384;20.390;2022-12-10T05:31:11;21.35;;;7.68;;
55364;SDS011;41245;45.384;20.390;2022-12-10T05:33:56;24.58;;;7.10;;
55364;SDS011;41245;45.384;20.390;2022-12-10T05:36:24;16.42;;;8.90;;
55364;SDS011;41245;45.384;20.390;2022-12-10T05:38:52;26.35;;;7.40;;
55364;SDS011;41245;45.384;20.390;2022-12-10T05:41:27;16.10;;;7.18;;
55364;SDS011;41245;45.384;20.390;2022-12-10T05:43:58;12.98;;;6.70;;
55364;SDS011;41245;45.384;20.390;2022-12-10T05:46:27;21.20;;;6.18;;
55364;SDS011;41245;45.384;20.390;2022-12-10T05:48:54;24.75;;;6.00;;
55364;SDS011;41245;45.384;20.390;2022-12-10T05:51:21;14.10;;;6.43;;
55364;SDS011;41245;45.384;20.390;2022-12-10T05:53:48;16.30;;;6.13;;
55364;SDS011;41245;45.384;20.390;2022-12-10T05:56:16;20.67;;;6.55;;
55364;SDS011;41245;45.384;20.390;2022-12-10T05:58:44;24.58;;;7.20;;
55364;SDS011;41245;45.384;20.390;2022-12-10T06:01:12;19.02;;;6.80;;
55364;SDS011;41245;45.384;20.390;2022-12-10T06:03:40;20.38;;;6.47;;
55364;SDS011;41245;45.384;20.390;2022-12-10T06:06:06;29.13;;;8.15;;
55364;SDS011;41245;45.384;20.390;2022-12-10T06:08:32;39.20;;;9.80;;
55364;SDS011;41245;45.384;20.390;2022-12-10T06:11:03;45.88;;;11.82;;
55364;SDS011;41245;45.384;20.390;2022-12-10T06:13:29;33.63;;;9.07;;
55364;SDS011;41245;45.384;20.390;2022-12-10T06:15:55;33.97;;;8.90;;
55364;SDS011;41245;45.384;20.390;2022-12-10T06:18:21;39.20;;;9.52;;
55364;SDS011;41245;45.384;20.390;2022-12-10T06:20:47;23.48;;;9.15;;
55364;SDS011;41245;45.384;20.390;2022-12-10T06:23:13;27.35;;;9.48;;
55364;SDS011;41245;45.384;20.390;2022-12-10T06:25:39;31.90;;;8.07;;
55364;SDS011;41245;45.384;20.390;2022-12-10T06:28:05;32.50;;;8.15;;
55364;SDS011;41245;45.384;20.390;2022-12-10T06:30:32;34.20;;;8.85;;
55364;SDS011;41245;45.384;20.390;2022-12-10T06:32:58;24.02;;;7.78;;
55364;SDS011;41245;45.384;20.390;2022-12-10T06:35:23;28.95;;;8.30;;
55364;SDS011;41245;45.384;20.390;2022-12-10T06:37:49;20.27;;;8.65;;
55364;SDS011;41245;45.384;20.390;2022-12-10T06:40:15;21.70;;;7.78;;
55364;SDS011;41245;45.384;20.390;2022-12-10T06:42:41;15.90;;;7.60;;
55364;SDS011;41245;45.384;20.390;2022-12-10T06:45:07;19.42;;;8.05;;
55364;SDS011;41245;45.384;20.390;2022-12-10T06:47:33;15.40;;;8.50;;
55364;SDS011;41245;45.384;20.390;2022-12-10T06:49:59;22.48;;;7.60;;
55364;SDS011;41245;45.384;20.390;2022-12-10T06:52:24;22.15;;;7.40;;
55364;SDS011;41245;45.384;20.390;2022-12-10T06:54:50;14.30;;;6.72;;
55364;SDS011;41245;45.384;20.390;2022-12-10T06:57:16;18.08;;;7.78;;
55364;SDS011;41245;45.384;20.390;2022-12-10T06:59:42;37.30;;;12.05;;
55364;SDS011;41245;45.384;20.390;2022-12-10T07:02:08;23.52;;;9.98;;
55364;SDS011;41245;45.384;20.390;2022-12-10T07:04:34;23.95;;;8.48;;
55364;SDS011;41245;45.384;20.390;2022-12-10T07:07:00;25.50;;;7.85;;
55364;SDS011;41245;45.384;20.390;2022-12-10T07:09:26;27.45;;;10.63;;
55364;SDS011;41245;45.384;20.390;2022-12-10T07:11:52;28.90;;;13.48;;
55364;SDS011;41245;45.384;20.390;2022-12-10T07:14:18;37.97;;;14.00;;
55364;SDS011;41245;45.384;20.390;2022-12-10T07:16:44;25.45;;;11.35;;
55364;SDS011;41245;45.384;20.390;2022-12-10T07:19:10;23.70;;;11.45;;
55364;SDS011;41245;45.384;20.390;2022-12-10T07:21:37;22.35;;;11.52;;
55364;SDS011;41245;45.384;20.390;2022-12-10T07:24:07;22.42;;;10.65;;
55364;SDS011;41245;45.384;20.390;2022-12-10T07:26:38;24.73;;;11.27;;
55364;SDS011;41245;45.384;20.390;2022-12-10T07:29:07;25.67;;;12.32;;
55364;SDS011;41245;45.384;20.390;2022-12-10T07:31:36;30.65;;;12.63;;
55364;SDS011;41245;45.384;20.390;2022-12-10T07:34:02;27.60;;;14.20;;
55364;SDS011;41245;45.384;20.390;2022-12-10T07:36:28;28.25;;;12.95;;
55364;SDS011;41245;45.384;20.390;2022-12-10T07:38:54;29.42;;;13.73;;
55364;SDS011;41245;45.384;20.390;2022-12-10T07:41:20;35.42;;;15.38;;
55364;SDS011;41245;45.384;20.390;2022-12-10T07:43:47;32.03;;;15.30;;
55364;SDS011;41245;45.384;20.390;2022-12-10T07:48:44;35.08;;;15.18;;
55364;SDS011;41245;45.384;20.390;2022-12-10T07:51:11;37.80;;;18.52;;
55364;SDS011;41245;45.384;20.390;2022-12-10T07:53:37;32.75;;;17.52;;
55364;SDS011;41245;45.384;20.390;2022-12-10T07:56:03;40.00;;;18.20;;
55364;SDS011;41245;45.384;20.390;2022-12-10T07:58:29;40.28;;;18.48;;
55364;SDS011;41245;45.384;20.390;2022-12-10T08:00:55;36.30;;;18.55;;
55364;SDS011;41245;45.384;20.390;2022-12-10T08:03:22;43.38;;;19.52;;
55364;SDS011;41245;45.384;20.390;2022-12-10T08:05:49;41.25;;;17.50;;
55364;SDS011;41245;45.384;20.390;2022-12-10T08:08:25;31.15;;;15.27;;
55364;SDS011;41245;45.384;20.390;2022-12-10T08:10:51;32.03;;;16.05;;
55364;SDS011;41245;45.384;20.390;2022-12-10T08:13:16;33.03;;;16.02;;
55364;SDS011;41245;45.384;20.390;2022-12-10T08:15:42;34.78;;;16.13;;
55364;SDS011;41245;45.384;20.390;2022-12-10T08:18:08;31.70;;;15.57;;
55364;SDS011;41245;45.384;20.390;2022-12-10T08:20:33;31.60;;;15.10;;
55364;SDS011;41245;45.384;20.390;2022-12-10T08:23:00;37.17;;;17.48;;
55364;SDS011;41245;45.384;20.390;2022-12-10T08:25:26;35.75;;;17.75;;
55364;SDS011;41245;45.384;20.390;2022-12-10T08:27:52;34.75;;;18.65;;
55364;SDS011;41245;45.384;20.390;2022-12-10T08:30:18;38.47;;;20.42;;
55364;SDS011;41245;45.384;20.390;2022-12-10T08:32:43;42.55;;;20.23;;
55364;SDS011;41245;45.384;20.390;2022-12-10T08:35:09;41.70;;;21.80;;
55364;SDS011;41245;45.384;20.390;2022-12-10T08:37:35;50.10;;;24.73;;
55364;SDS011;41245;45.384;20.390;2022-12-10T08:40:00;40.17;;;24.15;;
55364;SDS011;41245;45.384;20.390;2022-12-10T08:42:26;48.45;;;26.85;;
55364;SDS011;41245;45.384;20.390;2022-12-10T08:44:52;50.08;;;28.23;;
55364;SDS011;41245;45.384;20.390;2022-12-10T08:47:17;63.20;;;34.50;;
55364;SDS011;41245;45.384;20.390;2022-12-10T08:49:43;82.10;;;46.33;;
55364;SDS011;41245;45.384;20.390;2022-12-10T08:52:09;92.97;;;50.55;;
55364;SDS011;41245;45.384;20.390;2022-12-10T08:54:35;115.63;;;60.88;;
55364;SDS011;41245;45.384;20.390;2022-12-10T08:57:00;103.18;;;59.17;;
55364;SDS011;41245;45.384;20.390;2022-12-10T08:59:26;114.95;;;60.05;;
55364;SDS011;41245;45.384;20.390;2022-12-10T09:01:52;95.05;;;50.15;;
55364;SDS011;41245;45.384;20.390;2022-12-10T09:04:18;93.85;;;49.83;;
55364;SDS011;41245;45.384;20.390;2022-12-10T09:06:43;73.60;;;36.88;;
55364;SDS011;41245;45.384;20.390;2022-12-10T09:09:09;51.63;;;30.13;;
55364;SDS011;41245;45.384;20.390;2022-12-10T09:11:35;49.38;;;27.60;;
55364;SDS011;41245;45.384;20.390;2022-12-10T09:14:00;46.60;;;25.15;;
55364;SDS011;41245;45.384;20.390;2022-12-10T09:16:28;48.33;;;23.00;;
55364;SDS011;41245;45.384;20.390;2022-12-10T09:18:59;48.08;;;22.35;;
55364;SDS011;41245;45.384;20.390;2022-12-10T09:21:25;42.97;;;18.98;;
55364;SDS011;41245;45.384;20.390;2022-12-10T09:23:51;34.30;;;19.00;;
55364;SDS011;41245;45.384;20.390;2022-12-10T09:26:18;30.67;;;18.58;;
55364;SDS011;41245;45.384;20.390;2022-12-10T09:28:45;55.25;;;26.10;;
55364;SDS011;41245;45.384;20.390;2022-12-10T09:31:12;116.20;;;48.25;;
55364;SDS011;41245;45.384;20.390;2022-12-10T09:33:41;81.75;;;42.97;;
55364;SDS011;41245;45.384;20.390;2022-12-10T09:36:08;70.97;;;36.05;;
55364;SDS011;41245;45.384;20.390;2022-12-10T09:38:36;50.00;;;23.73;;
55364;SDS011;41245;45.384;20.390;2022-12-10T09:46:05;30.50;;;12.77;;
55364;SDS011;41245;45.384;20.390;2022-12-10T09:48:45;32.53;;;13.13;;
55364;SDS011;41245;45.384;20.390;2022-12-10T09:53:42;41.03;;;21.73;;
55364;SDS011;41245;45.384;20.390;2022-12-10T09:56:20;26.00;;;12.65;;
55364;SDS011;41245;45.384;20.390;2022-12-10T09:58:47;23.58;;;9.88;;
55364;SDS011;41245;45.384;20.390;2022-12-10T10:01:14;31.52;;;12.07;;
55364;SDS011;41245;45.384;20.390;2022-12-10T10:03:41;32.33;;;13.82;;
55364;SDS011;41245;45.384;20.390;2022-12-10T10:06:09;32.42;;;14.20;;
55364;SDS011;41245;45.384;20.390;2022-12-10T10:08:41;22.90;;;10.90;;
55364;SDS011;41245;45.384;20.390;2022-12-10T10:11:12;26.52;;;12.32;;
55364;SDS011;41245;45.384;20.390;2022-12-10T10:13:41;34.47;;;13.68;;
55364;SDS011;41245;45.384;20.390;2022-12-10T10:18:45;25.92;;;14.40;;
55364;SDS011;41245;45.384;20.390;2022-12-10T10:21:16;30.30;;;17.13;;
55364;SDS011;41245;45.384;20.390;2022-12-10T10:23:45;26.63;;;13.30;;
55364;SDS011;41245;45.384;20.390;2022-12-10T10:26:11;28.83;;;13.35;;
55364;SDS011;41245;45.384;20.390;2022-12-10T10:28:38;29.77;;;14.95;;
55364;SDS011;41245;45.384;20.390;2022-12-10T10:31:12;27.02;;;15.82;;
55364;SDS011;41245;45.384;20.390;2022-12-10T10:33:47;28.85;;;14.52;;
55364;SDS011;41245;45.384;20.390;2022-12-10T10:36:14;28.52;;;16.00;;
55364;SDS011;41245;45.384;20.390;2022-12-10T10:38:43;33.15;;;16.58;;
55364;SDS011;41245;45.384;20.390;2022-12-10T10:41:12;27.70;;;16.33;;
55364;SDS011;41245;45.384;20.390;2022-12-10T10:43:40;39.25;;;17.10;;
55364;SDS011;41245;45.384;20.390;2022-12-10T10:51:46;31.20;;;14.43;;
55364;SDS011;41245;45.384;20.390;2022-12-10T10:54:30;28.95;;;12.77;;
55364;SDS011;41245;45.384;20.390;2022-12-10T10:56:56;28.65;;;14.68;;
55364;SDS011;41245;45.384;20.390;2022-12-10T10:59:40;31.35;;;15.55;;
55364;SDS011;41245;45.384;20.390;2022-12-10T11:02:20;26.50;;;11.73;;
55364;SDS011;41245;45.384;20.390;2022-12-10T11:04:49;23.77;;;9.35;;
55364;SDS011;41245;45.384;20.390;2022-12-10T11:07:23;16.38;;;6.80;;
55364;SDS011;41245;45.384;20.390;2022-12-10T11:09:54;11.98;;;6.72;;
55364;SDS011;41245;45.384;20.390;2022-12-10T11:12:28;24.55;;;7.88;;
55364;SDS011;41245;45.384;20.390;2022-12-10T11:14:54;20.70;;;9.13;;
55364;SDS011;41245;45.384;20.390;2022-12-10T11:17:22;23.83;;;8.55;;
55364;SDS011;41245;45.384;20.390;2022-12-10T11:20:14;18.65;;;7.70;;
55364;SDS011;41245;45.384;20.390;2022-12-10T11:22:48;16.45;;;8.85;;
55364;SDS011;41245;45.384;20.390;2022-12-10T11:25:14;19.67;;;8.27;;
55364;SDS011;41245;45.384;20.390;2022-12-10T11:32:52;26.73;;;9.70;;
55364;SDS011;41245;45.384;20.390;2022-12-10T11:48:01;20.45;;;8.70;;
55364;SDS011;41245;45.384;20.390;2022-12-10T11:56:13;17.85;;;9.15;;
55364;SDS011;41245;45.384;20.390;2022-12-10T12:03:52;24.65;;;10.32;;
55364;SDS011;41245;45.384;20.390;2022-12-10T12:06:35;23.75;;;10.15;;
55364;SDS011;41245;45.384;20.390;2022-12-10T12:14:19;24.55;;;9.98;;
55364;SDS011;41245;45.384;20.390;2022-12-10T12:16:55;22.42;;;11.15;;
55364;SDS011;41245;45.384;20.390;2022-12-10T12:19:46;42.00;;;17.02;;
55364;SDS011;41245;45.384;20.390;2022-12-10T12:22:13;52.42;;;26.75;;
55364;SDS011;41245;45.384;20.390;2022-12-10T12:24:40;18.27;;;10.63;;
55364;SDS011;41245;45.384;20.390;2022-12-10T12:32:21;19.77;;;8.50;;
55364;SDS011;41245;45.384;20.390;2022-12-10T12:34:51;17.45;;;8.50;;
55364;SDS011;41245;45.384;20.390;2022-12-10T12:37:20;24.23;;;8.43;;
55364;SDS011;41245;45.384;20.390;2022-12-10T12:44:52;19.10;;;8.32;;
55364;SDS011;41245;45.384;20.390;2022-12-10T12:50:11;21.73;;;9.77;;
55364;SDS011;41245;45.384;20.390;2022-12-10T12:52:46;18.55;;;9.27;;
55364;SDS011;41245;45.384;20.390;2022-12-10T12:55:19;28.00;;;10.35;;
55364;SDS011;41245;45.384;20.390;2022-12-10T12:57:48;22.83;;;10.85;;
55364;SDS011;41245;45.384;20.390;2022-12-10T13:00:16;39.47;;;18.33;;
55364;SDS011;41245;45.384;20.390;2022-12-10T13:02:53;24.17;;;9.25;;
55364;SDS011;41245;45.384;20.390;2022-12-10T13:05:35;26.02;;;8.73;;
55364;SDS011;41245;45.384;20.390;2022-12-10T13:11:45;20.08;;;8.65;;
55364;SDS011;41245;45.384;20.390;2022-12-10T13:13:39;28.33;;;11.90;;
55364;SDS011;41245;45.384;20.390;2022-12-10T13:18:53;17.60;;;9.55;;
55364;SDS011;41245;45.384;20.390;2022-12-10T13:21:37;25.08;;;7.95;;
55364;SDS011;41245;45.384;20.390;2022-12-10T13:24:43;18.92;;;8.57;;
55364;SDS011;41245;45.384;20.390;2022-12-10T13:29:46;19.15;;;9.00;;
55364;SDS011;41245;45.384;20.390;2022-12-10T13:33:02;21.73;;;9.30;;
55364;SDS011;41245;45.384;20.390;2022-12-10T13:37:34;21.35;;;11.50;;
55364;SDS011;41245;45.384;20.390;2022-12-10T13:42:36;19.98;;;10.43;;
55364;SDS011;41245;45.384;20.390;2022-12-10T13:47:51;26.35;;;9.63;;
55364;SDS011;41245;45.384;20.390;2022-12-10T13:50:19;19.65;;;9.32;;
55364;SDS011;41245;45.384;20.390;2022-12-10T13:52:57;28.80;;;10.65;;
55364;SDS011;41245;45.384;20.390;2022-12-10T13:55:34;26.48;;;11.05;;
55364;SDS011;41245;45.384;20.390;2022-12-10T14:00:47;26.42;;;10.65;;
55364;SDS011;41245;45.384;20.390;2022-12-10T14:08:13;31.13;;;12.13;;
55364;SDS011;41245;45.384;20.390;2022-12-10T14:10:42;21.50;;;10.45;;
55364;SDS011;41245;45.384;20.390;2022-12-10T14:13:10;24.13;;;9.95;;
55364;SDS011;41245;45.384;20.390;2022-12-10T14:15:37;20.00;;;10.30;;
55364;SDS011;41245;45.384;20.390;2022-12-10T14:18:09;22.73;;;9.05;;
55364;SDS011;41245;45.384;20.390;2022-12-10T14:20:36;18.98;;;9.85;;
55364;SDS011;41245;45.384;20.390;2022-12-10T14:23:05;18.47;;;10.60;;
55364;SDS011;41245;45.384;20.390;2022-12-10T14:26:06;15.50;;;8.55;;
55364;SDS011;41245;45.384;20.390;2022-12-10T14:28:32;18.40;;;9.32;;
55364;SDS011;41245;45.384;20.390;2022-12-10T14:30:58;23.75;;;9.27;;
55364;SDS011;41245;45.384;20.390;2022-12-10T14:33:24;19.13;;;8.93;;
55364;SDS011;41245;45.384;20.390;2022-12-10T14:35:51;18.63;;;10.60;;
55364;SDS011;41245;45.384;20.390;2022-12-10T14:38:22;29.83;;;11.20;;
55364;SDS011;41245;45.384;20.390;2022-12-10T14:40:52;20.67;;;9.55;;
55364;SDS011;41245;45.384;20.390;2022-12-10T14:43:20;18.42;;;10.73;;
55364;SDS011;41245;45.384;20.390;2022-12-10T14:45:51;18.90;;;8.85;;
55364;SDS011;41245;45.384;20.390;2022-12-10T14:48:20;18.48;;;9.88;;
55364;SDS011;41245;45.384;20.390;2022-12-10T14:50:46;19.52;;;8.25;;
55364;SDS011;41245;45.384;20.390;2022-12-10T14:53:16;20.25;;;10.05;;
55364;SDS011;41245;45.384;20.390;2022-12-10T14:55:46;25.27;;;9.70;;
55364;SDS011;41245;45.384;20.390;2022-12-10T14:58:17;18.95;;;9.98;;
55364;SDS011;41245;45.384;20.390;2022-12-10T15:00:44;18.60;;;9.07;;
55364;SDS011;41245;45.384;20.390;2022-12-10T15:03:11;21.10;;;8.38;;
55364;SDS011;41245;45.384;20.390;2022-12-10T15:05:41;23.60;;;9.48;;
55364;SDS011;41245;45.384;20.390;2022-12-10T15:08:24;16.00;;;8.35;;
55364;SDS011;41245;45.384;20.390;2022-12-10T15:10:53;23.45;;;11.38;;
55364;SDS011;41245;45.384;20.390;2022-12-10T15:13:21;38.58;;;15.35;;
55364;SDS011;41245;45.384;20.390;2022-12-10T15:15:49;26.13;;;9.98;;
55364;SDS011;41245;45.384;20.390;2022-12-10T15:18:16;16.08;;;8.25;;
55364;SDS011;41245;45.384;20.390;2022-12-10T15:20:52;24.05;;;9.05;;
55364;SDS011;41245;45.384;20.390;2022-12-10T15:23:20;15.65;;;8.40;;
55364;SDS011;41245;45.384;20.390;2022-12-10T15:26:00;12.55;;;7.93;;
55364;SDS011;41245;45.384;20.390;2022-12-10T15:28:27;18.33;;;8.02;;
55364;SDS011;41245;45.384;20.390;2022-12-10T15:33:40;20.88;;;9.55;;
55364;SDS011;41245;45.384;20.390;2022-12-10T15:36:11;22.48;;;9.95;;
55364;SDS011;41245;45.384;20.390;2022-12-10T15:38:41;20.15;;;9.20;;
55364;SDS011;41245;45.384;20.390;2022-12-10T15:44:17;22.35;;;8.82;;
55364;SDS011;41245;45.384;20.390;2022-12-10T15:46:47;30.27;;;12.85;;
55364;SDS011;41245;45.384;20.390;2022-12-10T15:49:13;25.30;;;11.60;;
55364;SDS011;41245;45.384;20.390;2022-12-10T15:51:40;35.05;;;14.95;;
55364;SDS011;41245;45.384;20.390;2022-12-10T15:54:41;34.10;;;13.77;;
55364;SDS011;41245;45.384;20.390;2022-12-10T15:56:59;25.85;;;10.45;;
55364;SDS011;41245;45.384;20.390;2022-12-10T15:59:25;24.38;;;10.73;;
55364;SDS011;41245;45.384;20.390;2022-12-10T16:01:51;27.33;;;11.70;;
55364;SDS011;41245;45.384;20.390;2022-12-10T16:04:18;22.42;;;10.27;;
55364;SDS011;41245;45.384;20.390;2022-12-10T16:06:44;26.00;;;9.38;;
55364;SDS011;41245;45.384;20.390;2022-12-10T16:09:10;26.27;;;10.60;;
55364;SDS011;41245;45.384;20.390;2022-12-10T16:11:36;28.92;;;16.92;;
55364;SDS011;41245;45.384;20.390;2022-12-10T16:14:02;31.23;;;14.90;;
55364;SDS011;41245;45.384;20.390;2022-12-10T16:16:28;28.13;;;15.23;;
55364;SDS011;41245;45.384;20.390;2022-12-10T16:18:55;32.75;;;17.48;;
55364;SDS011;41245;45.384;20.390;2022-12-10T16:21:21;26.35;;;15.80;;